sensor_id;sensor_type;location;lat;lon;timestamp;pressure;altitude;pressure_sealevel;temperature
50206;BMP280;36098;48.390;10.856;2023-02-01T00:01:15;96608.13;;;22.47
50206;BMP280;36098;48.390;10.856;2023-02-01T00:03:40;96604.22;;;22.49
50206;BMP280;36098;48.390;10.856;2023-02-01T00:06:06;96608.91;;;22.47
50206;BMP280;36098;48.390;10.856;2023-02-01T00:08:31;96603.38;;;22.44
50206;BMP280;36098;48.390;10.856;2023-02-01T00:11:00;96595.72;;;22.42
50206;BMP280;36098;48.390;10.856;2023-02-01T00:13:27;96580.44;;;22.39
50206;BMP280;36098;48.390;10.856;2023-02-01T00:15:52;96586.44;;;22.35
50206;BMP280;36098;48.390;10.856;2023-02-01T00:18:17;96574.84;;;22.36
50206;BMP280;36098;48.390;10.856;2023-02-01T00:20:46;96572.75;;;22.33
50206;BMP280;36098;48.390;10.856;2023-02-01T00:23:11;96575.91;;;22.35
50206;BMP280;36098;48.390;10.856;2023-02-01T00:25:36;96576.94;;;22.34
50206;BMP280;36098;48.390;10.856;2023-02-01T00:28:02;96578.00;;;22.33
50206;BMP280;36098;48.390;10.856;2023-02-01T00:30:27;96581.44;;;22.33
50206;BMP280;36098;48.390;10.856;2023-02-01T00:32:52;96574.81;;;22.31
50206;BMP280;36098;48.390;10.856;2023-02-01T00:35:17;96577.66;;;22.24
50206;BMP280;36098;48.390;10.856;2023-02-01T00:37:42;96570.59;;;22.25
50206;BMP280;36098;48.390;10.856;2023-02-01T00:40:08;96576.38;;;22.27
50206;BMP280;36098;48.390;10.856;2023-02-01T00:42:33;96572.16;;;22.26
50206;BMP280;36098;48.390;10.856;2023-02-01T00:44:58;96571.13;;;22.27
50206;BMP280;36098;48.390;10.856;2023-02-01T00:47:23;96568.19;;;22.23
50206;BMP280;36098;48.390;10.856;2023-02-01T00:49:48;96561.63;;;22.21
50206;BMP280;36098;48.390;10.856;2023-02-01T00:52:14;96559.47;;;22.18
50206;BMP280;36098;48.390;10.856;2023-02-01T00:54:39;96564.19;;;22.16
50206;BMP280;36098;48.390;10.856;2023-02-01T00:57:04;96559.97;;;22.15
50206;BMP280;36098;48.390;10.856;2023-02-01T00:59:29;96565.00;;;22.16
50206;BMP280;36098;48.390;10.856;2023-02-01T01:01:54;96560.78;;;22.15
50206;BMP280;36098;48.390;10.856;2023-02-01T01:04:19;96554.47;;;22.16
50206;BMP280;36098;48.390;10.856;2023-02-01T01:06:44;96553.09;;;22.09
50206;BMP280;36098;48.390;10.856;2023-02-01T01:09:10;96552.28;;;22.08
50206;BMP280;36098;48.390;10.856;2023-02-01T01:11:36;96554.63;;;22.00
50206;BMP280;36098;48.390;10.856;2023-02-01T01:14:01;96559.38;;;22.03
50206;BMP280;36098;48.390;10.856;2023-02-01T01:16:27;96560.94;;;22.04
50206;BMP280;36098;48.390;10.856;2023-02-01T01:18:53;96548.34;;;22.06
50206;BMP280;36098;48.390;10.856;2023-02-01T01:21:19;96547.31;;;22.07
50206;BMP280;36098;48.390;10.856;2023-02-01T01:23:45;96555.69;;;22.04
50206;BMP280;36098;48.390;10.856;2023-02-01T01:26:14;96540.69;;;22.04
50206;BMP280;36098;48.390;10.856;2023-02-01T01:28:40;96550.94;;;22.01
50206;BMP280;36098;48.390;10.856;2023-02-01T01:31:09;96541.16;;;21.96
50206;BMP280;36098;48.390;10.856;2023-02-01T01:33:34;96534.31;;;21.95
50206;BMP280;36098;48.390;10.856;2023-02-01T01:35:59;96533.50;;;21.95
50206;BMP280;36098;48.390;10.856;2023-02-01T01:38:25;96534.06;;;21.97
50206;BMP280;36098;48.390;10.856;2023-02-01T01:40:50;96526.66;;;21.94
50206;BMP280;36098;48.390;10.856;2023-02-01T01:43:16;96515.09;;;21.95
50206;BMP280;36098;48.390;10.856;2023-02-01T01:45:42;96502.47;;;21.92
50206;BMP280;36098;48.390;10.856;2023-02-01T01:48:21;96504.31;;;21.91
50206;BMP280;36098;48.390;10.856;2023-02-01T01:50:51;96503.53;;;21.96
50206;BMP280;36098;48.390;10.856;2023-02-01T01:53:20;96498.25;;;21.91
50206;BMP280;36098;48.390;10.856;2023-02-01T01:55:47;96492.44;;;21.84
50206;BMP280;36098;48.390;10.856;2023-02-01T01:58:14;96494.56;;;21.87
50206;BMP280;36098;48.390;10.856;2023-02-01T02:00:41;96497.22;;;21.92
50206;BMP280;36098;48.390;10.856;2023-02-01T02:03:08;96494.28;;;21.88
50206;BMP280;36098;48.390;10.856;2023-02-01T02:05:34;96494.78;;;21.85
50206;BMP280;36098;48.390;10.856;2023-02-01T02:08:00;96504.81;;;21.88
50206;BMP280;36098;48.390;10.856;2023-02-01T02:10:28;96504.31;;;21.91
50206;BMP280;36098;48.390;10.856;2023-02-01T02:13:12;96504.53;;;21.85
50206;BMP280;36098;48.390;10.856;2023-02-01T02:15:38;96502.41;;;21.82
50206;BMP280;36098;48.390;10.856;2023-02-01T02:18:07;96500.84;;;21.86
50206;BMP280;36098;48.390;10.856;2023-02-01T02:23:29;96502.44;;;21.87
50206;BMP280;36098;48.390;10.856;2023-02-01T02:39:05;96492.88;;;21.76
50206;BMP280;36098;48.390;10.856;2023-02-01T02:41:40;96495.47;;;21.71
50206;BMP280;36098;48.390;10.856;2023-02-01T02:44:45;96490.75;;;21.73
50206;BMP280;36098;48.390;10.856;2023-02-01T02:50:01;96495.44;;;21.66
50206;BMP280;36098;48.390;10.856;2023-02-01T02:52:48;96499.34;;;21.63
50206;BMP280;36098;48.390;10.856;2023-02-01T02:55:34;96485.69;;;21.66
50206;BMP280;36098;48.390;10.856;2023-02-01T02:58:00;96488.03;;;21.63
50206;BMP280;36098;48.390;10.856;2023-02-01T03:00:46;96476.50;;;21.64
50206;BMP280;36098;48.390;10.856;2023-02-01T03:03:30;96483.34;;;21.65
50206;BMP280;36098;48.390;10.856;2023-02-01T03:06:15;96479.13;;;21.64
50206;BMP280;36098;48.390;10.856;2023-02-01T03:08:41;96479.34;;;21.62
50206;BMP280;36098;48.390;10.856;2023-02-01T03:14:19;96482.22;;;21.61
50206;BMP280;36098;48.390;10.856;2023-02-01T03:16:47;96483.00;;;21.61
50206;BMP280;36098;48.390;10.856;2023-02-01T03:19:25;96480.94;;;21.63
50206;BMP280;36098;48.390;10.856;2023-02-01T03:21:59;96469.91;;;21.66
50206;BMP280;36098;48.390;10.856;2023-02-01T03:24:29;96473.53;;;21.60
50206;BMP280;36098;48.390;10.856;2023-02-01T03:27:33;96472.50;;;21.61
50206;BMP280;36098;48.390;10.856;2023-02-01T03:30:15;96478.06;;;21.65
50206;BMP280;36098;48.390;10.856;2023-02-01T03:32:36;96466.94;;;21.58
50206;BMP280;36098;48.390;10.856;2023-02-01T03:35:24;96473.22;;;21.57
50206;BMP280;36098;48.390;10.856;2023-02-01T03:37:50;96462.81;;;21.62
50206;BMP280;36098;48.390;10.856;2023-02-01T03:40:17;96473.72;;;21.54
50206;BMP280;36098;48.390;10.856;2023-02-01T03:42:44;96462.19;;;21.55
50206;BMP280;36098;48.390;10.856;2023-02-01T03:45:13;96458.78;;;21.54
50206;BMP280;36098;48.390;10.856;2023-02-01T03:47:40;96454.84;;;21.57
50206;BMP280;36098;48.390;10.856;2023-02-01T03:50:07;96460.09;;;21.57
50206;BMP280;36098;48.390;10.856;2023-02-01T03:52:38;96467.44;;;21.55
50206;BMP280;36098;48.390;10.856;2023-02-01T03:55:05;96466.34;;;21.51
50206;BMP280;36098;48.390;10.856;2023-02-01T03:57:32;96467.94;;;21.52
50206;BMP280;36098;48.390;10.856;2023-02-01T04:00:06;96471.81;;;21.44
50206;BMP280;36098;48.390;10.856;2023-02-01T04:02:32;96477.38;;;21.48
50206;BMP280;36098;48.390;10.856;2023-02-01T04:04:57;96469.53;;;21.53
50206;BMP280;36098;48.390;10.856;2023-02-01T04:07:23;96480.03;;;21.53
50206;BMP280;36098;48.390;10.856;2023-02-01T04:09:48;96475.78;;;21.47
50206;BMP280;36098;48.390;10.856;2023-02-01T04:12:13;96462.09;;;21.45
50206;BMP280;36098;48.390;10.856;2023-02-01T04:14:38;96469.44;;;21.43
50206;BMP280;36098;48.390;10.856;2023-02-01T04:17:03;96477.88;;;21.45
50206;BMP280;36098;48.390;10.856;2023-02-01T04:19:28;96465.47;;;21.40
50206;BMP280;36098;48.390;10.856;2023-02-01T04:21:53;96468.63;;;21.42
50206;BMP280;36098;48.390;10.856;2023-02-01T04:24:19;96463.69;;;21.46
50206;BMP280;36098;48.390;10.856;2023-02-01T04:26:44;96459.72;;;21.43
50206;BMP280;36098;48.390;10.856;2023-02-01T04:29:09;96468.44;;;21.49
50206;BMP280;36098;48.390;10.856;2023-02-01T04:31:35;96470.53;;;21.47
50206;BMP280;36098;48.390;10.856;2023-02-01T04:34:01;96471.03;;;21.44
50206;BMP280;36098;48.390;10.856;2023-02-01T04:36:26;96468.94;;;21.46
50206;BMP280;36098;48.390;10.856;2023-02-01T04:38:51;96470.75;;;21.45
50206;BMP280;36098;48.390;10.856;2023-02-01T04:41:17;96462.59;;;21.42
50206;BMP280;36098;48.390;10.856;2023-02-01T04:43:44;96474.41;;;21.39
50206;BMP280;36098;48.390;10.856;2023-02-01T04:46:09;96469.44;;;21.43
50206;BMP280;36098;48.390;10.856;2023-02-01T04:48:34;96470.41;;;21.37
50206;BMP280;36098;48.390;10.856;2023-02-01T04:50:59;96473.03;;;21.37
50206;BMP280;36098;48.390;10.856;2023-02-01T04:53:24;96469.88;;;21.35
50206;BMP280;36098;48.390;10.856;2023-02-01T04:55:50;96460.19;;;21.36
50206;BMP280;36098;48.390;10.856;2023-02-01T04:58:15;96460.22;;;21.40
50206;BMP280;36098;48.390;10.856;2023-02-01T05:00:40;96442.28;;;21.33
50206;BMP280;36098;48.390;10.856;2023-02-01T05:03:06;96434.34;;;21.28
50206;BMP280;36098;48.390;10.856;2023-02-01T05:05:31;96425.22;;;21.35
50206;BMP280;36098;48.390;10.856;2023-02-01T05:07:56;96439.19;;;21.40
50206;BMP280;36098;48.390;10.856;2023-02-01T05:10:21;96441.53;;;21.11
50206;BMP280;36098;48.390;10.856;2023-02-01T05:12:47;96456.09;;;20.97
50206;BMP280;36098;48.390;10.856;2023-02-01T05:15:31;96458.94;;;20.90
50206;BMP280;36098;48.390;10.856;2023-02-01T05:17:56;96460.31;;;20.98
50206;BMP280;36098;48.390;10.856;2023-02-01T05:20:22;96451.81;;;21.12
50206;BMP280;36098;48.390;10.856;2023-02-01T05:22:47;96450.59;;;21.25
50206;BMP280;36098;48.390;10.856;2023-02-01T05:25:12;96440.78;;;21.41
50206;BMP280;36098;48.390;10.856;2023-02-01T05:27:37;96449.56;;;21.57
50206;BMP280;36098;48.390;10.856;2023-02-01T05:30:03;96436.84;;;21.70
50206;BMP280;36098;48.390;10.856;2023-02-01T05:32:29;96438.25;;;21.83
50206;BMP280;36098;48.390;10.856;2023-02-01T05:34:54;96444.38;;;21.93
50206;BMP280;36098;48.390;10.856;2023-02-01T05:37:19;96449.97;;;22.02
50206;BMP280;36098;48.390;10.856;2023-02-01T05:39:44;96454.72;;;22.10
50206;BMP280;36098;48.390;10.856;2023-02-01T05:42:09;96441.59;;;22.15
50206;BMP280;36098;48.390;10.856;2023-02-01T05:44:35;96438.50;;;22.23
50206;BMP280;36098;48.390;10.856;2023-02-01T05:47:00;96435.66;;;22.29
50206;BMP280;36098;48.390;10.856;2023-02-01T05:49:25;96432.22;;;22.34
50206;BMP280;36098;48.390;10.856;2023-02-01T05:51:50;96418.09;;;22.40
50206;BMP280;36098;48.390;10.856;2023-02-01T05:54:15;96413.41;;;22.47
50206;BMP280;36098;48.390;10.856;2023-02-01T05:56:41;96416.56;;;22.49
50206;BMP280;36098;48.390;10.856;2023-02-01T05:59:06;96422.38;;;22.56
50206;BMP280;36098;48.390;10.856;2023-02-01T06:01:31;96422.66;;;22.64
50206;BMP280;36098;48.390;10.856;2023-02-01T06:03:56;96416.63;;;22.69
50206;BMP280;36098;48.390;10.856;2023-02-01T06:06:21;96417.44;;;22.69
50206;BMP280;36098;48.390;10.856;2023-02-01T06:08:46;96427.69;;;22.76
50206;BMP280;36098;48.390;10.856;2023-02-01T06:11:12;96422.97;;;22.78
50206;BMP280;36098;48.390;10.856;2023-02-01T06:13:38;96425.34;;;22.84
50206;BMP280;36098;48.390;10.856;2023-02-01T06:16:03;96417.22;;;22.91
50206;BMP280;36098;48.390;10.856;2023-02-01T06:18:30;96416.44;;;22.95
50206;BMP280;36098;48.390;10.856;2023-02-01T06:20:57;96427.50;;;23.02
50206;BMP280;36098;48.390;10.856;2023-02-01T06:23:22;96413.03;;;23.05
50206;BMP280;36098;48.390;10.856;2023-02-01T06:25:49;96405.13;;;23.10
50206;BMP280;36098;48.390;10.856;2023-02-01T06:28:14;96410.97;;;23.12
50206;BMP280;36098;48.390;10.856;2023-02-01T06:30:40;96418.38;;;23.20
50206;BMP280;36098;48.390;10.856;2023-02-01T06:33:08;96411.78;;;23.22
50206;BMP280;36098;48.390;10.856;2023-02-01T06:35:33;96416.00;;;23.28
50206;BMP280;36098;48.390;10.856;2023-02-01T06:37:58;96422.88;;;23.29
50206;BMP280;36098;48.390;10.856;2023-02-01T06:40:23;96415.47;;;23.31
50206;BMP280;36098;48.390;10.856;2023-02-01T06:42:49;96409.94;;;23.32
50206;BMP280;36098;48.390;10.856;2023-02-01T06:45:14;96417.88;;;23.37
50206;BMP280;36098;48.390;10.856;2023-02-01T06:47:39;96407.84;;;23.39
50206;BMP280;36098;48.390;10.856;2023-02-01T06:50:05;96402.03;;;23.42
50206;BMP280;36098;48.390;10.856;2023-02-01T06:52:30;96410.19;;;23.46
50206;BMP280;36098;48.390;10.856;2023-02-01T06:54:55;96418.91;;;23.46
50206;BMP280;36098;48.390;10.856;2023-02-01T06:57:20;96414.97;;;23.49
50206;BMP280;36098;48.390;10.856;2023-02-01T06:59:46;96420.22;;;23.54
50206;BMP280;36098;48.390;10.856;2023-02-01T07:02:11;96421.03;;;23.59
50206;BMP280;36098;48.390;10.856;2023-02-01T07:04:36;96411.00;;;23.61
50206;BMP280;36098;48.390;10.856;2023-02-01T07:07:01;96410.47;;;23.64
50206;BMP280;36098;48.390;10.856;2023-02-01T07:09:26;96415.22;;;23.67
50206;BMP280;36098;48.390;10.856;2023-02-01T07:11:52;96426.81;;;23.71
50206;BMP280;36098;48.390;10.856;2023-02-01T07:14:17;96430.50;;;23.75
50206;BMP280;36098;48.390;10.856;2023-02-01T07:16:42;96427.88;;;23.80
50206;BMP280;36098;48.390;10.856;2023-02-01T07:19:07;96431.59;;;23.84
50206;BMP280;36098;48.390;10.856;2023-02-01T07:21:32;96441.34;;;23.89
50206;BMP280;36098;48.390;10.856;2023-02-01T07:23:58;96430.50;;;23.95
50206;BMP280;36098;48.390;10.856;2023-02-01T07:26:24;96436.31;;;23.97
50206;BMP280;36098;48.390;10.856;2023-02-01T07:28:49;96418.13;;;23.96
50206;BMP280;36098;48.390;10.856;2023-02-01T07:31:15;96421.81;;;23.95
50206;BMP280;36098;48.390;10.856;2023-02-01T07:33:43;96424.47;;;23.90
50206;BMP280;36098;48.390;10.856;2023-02-01T07:36:10;96434.75;;;23.86
50206;BMP280;36098;48.390;10.856;2023-02-01T07:38:36;96438.41;;;23.80
50206;BMP280;36098;48.390;10.856;2023-02-01T07:41:02;96443.66;;;23.75
50206;BMP280;36098;48.390;10.856;2023-02-01T07:43:27;96438.41;;;23.70
50206;BMP280;36098;48.390;10.856;2023-02-01T07:45:53;96434.72;;;23.66
50206;BMP280;36098;48.390;10.856;2023-02-01T07:48:19;96435.25;;;23.63
50206;BMP280;36098;48.390;10.856;2023-02-01T07:50:44;96434.22;;;23.59
50206;BMP280;36098;48.390;10.856;2023-02-01T07:53:09;96428.94;;;23.59
50206;BMP280;36098;48.390;10.856;2023-02-01T07:55:37;96434.19;;;23.54
50206;BMP280;36098;48.390;10.856;2023-02-01T07:58:02;96447.38;;;23.54
50206;BMP280;36098;48.390;10.856;2023-02-01T08:00:27;96461.09;;;23.61
50206;BMP280;36098;48.390;10.856;2023-02-01T08:03:11;96451.88;;;23.94
50206;BMP280;36098;48.390;10.856;2023-02-01T08:05:36;96451.59;;;24.10
50206;BMP280;36098;48.390;10.856;2023-02-01T08:08:01;96462.91;;;24.26
50206;BMP280;36098;48.390;10.856;2023-02-01T08:10:27;96467.94;;;24.17
50206;BMP280;36098;48.390;10.856;2023-02-01T08:12:57;96463.19;;;24.24
50206;BMP280;36098;48.390;10.856;2023-02-01T08:15:22;96473.22;;;24.12
50206;BMP280;36098;48.390;10.856;2023-02-01T08:17:48;96479.81;;;24.00
50206;BMP280;36098;48.390;10.856;2023-02-01T08:20:13;96476.38;;;24.19
50206;BMP280;36098;48.390;10.856;2023-02-01T08:22:38;96485.38;;;24.18
50206;BMP280;36098;48.390;10.856;2023-02-01T08:25:03;96471.63;;;24.21
50206;BMP280;36098;48.390;10.856;2023-02-01T08:27:29;96468.97;;;24.26
50206;BMP280;36098;48.390;10.856;2023-02-01T08:29:54;96469.03;;;24.01
50206;BMP280;36098;48.390;10.856;2023-02-01T08:32:19;96467.41;;;24.10
50206;BMP280;36098;48.390;10.856;2023-02-01T08:34:44;96462.16;;;24.05
50206;BMP280;36098;48.390;10.856;2023-02-01T08:37:09;96474.81;;;24.08
50206;BMP280;36098;48.390;10.856;2023-02-01T08:39:35;96480.09;;;24.08
50206;BMP280;36098;48.390;10.856;2023-02-01T08:42:01;96457.94;;;23.79
50206;BMP280;36098;48.390;10.856;2023-02-01T08:44:44;96457.97;;;23.84
50206;BMP280;36098;48.390;10.856;2023-02-01T08:47:10;96450.00;;;23.69
50206;BMP280;36098;48.390;10.856;2023-02-01T08:49:36;96460.00;;;23.32
50206;BMP280;36098;48.390;10.856;2023-02-01T08:52:02;96469.16;;;23.10
50206;BMP280;36098;48.390;10.856;2023-02-01T08:54:27;96472.56;;;23.06
50206;BMP280;36098;48.390;10.856;2023-02-01T08:56:52;96479.66;;;23.05
50206;BMP280;36098;48.390;10.856;2023-02-01T08:59:19;96470.72;;;23.06
50206;BMP280;36098;48.390;10.856;2023-02-01T09:01:44;96469.94;;;23.06
50206;BMP280;36098;48.390;10.856;2023-02-01T09:04:09;96487.03;;;23.03
50206;BMP280;36098;48.390;10.856;2023-02-01T09:06:34;96471.50;;;23.02
50206;BMP280;36098;48.390;10.856;2023-02-01T09:08:59;96466.50;;;23.00
50206;BMP280;36098;48.390;10.856;2023-02-01T09:11:25;96466.22;;;22.97
50206;BMP280;36098;48.390;10.856;2023-02-01T09:13:50;96477.78;;;22.96
50206;BMP280;36098;48.390;10.856;2023-02-01T09:16:16;96466.56;;;23.15
50206;BMP280;36098;48.390;10.856;2023-02-01T09:18:41;96464.50;;;23.37
50206;BMP280;36098;48.390;10.856;2023-02-01T09:21:06;96456.84;;;23.75
50206;BMP280;36098;48.390;10.856;2023-02-01T09:23:32;96474.28;;;23.91
50206;BMP280;36098;48.390;10.856;2023-02-01T09:26:01;96478.25;;;24.09
50206;BMP280;36098;48.390;10.856;2023-02-01T09:28:26;96467.41;;;24.15
50206;BMP280;36098;48.390;10.856;2023-02-01T09:30:58;96469.53;;;24.18
50206;BMP280;36098;48.390;10.856;2023-02-01T09:33:24;96478.50;;;24.17
50206;BMP280;36098;48.390;10.856;2023-02-01T09:35:54;96491.97;;;23.96
50206;BMP280;36098;48.390;10.856;2023-02-01T09:38:19;96482.72;;;23.78
50206;BMP280;36098;48.390;10.856;2023-02-01T09:40:45;96496.44;;;23.60
50206;BMP280;36098;48.390;10.856;2023-02-01T09:48:20;96502.19;;;23.47
50206;BMP280;36098;48.390;10.856;2023-02-01T09:50:52;96496.09;;;23.22
50206;BMP280;36098;48.390;10.856;2023-02-01T09:53:20;96500.19;;;22.98
50206;BMP280;36098;48.390;10.856;2023-02-01T09:55:49;96500.44;;;22.92
50206;BMP280;36098;48.390;10.856;2023-02-01T10:00:57;96502.00;;;22.88
50206;BMP280;36098;48.390;10.856;2023-02-01T10:03:23;96502.00;;;22.88
50206;BMP280;36098;48.390;10.856;2023-02-01T10:05:59;96516.75;;;22.89
50206;BMP280;36098;48.390;10.856;2023-02-01T10:11:04;96512.13;;;23.16
50206;BMP280;36098;48.390;10.856;2023-02-01T10:13:38;96516.16;;;23.28
50206;BMP280;36098;48.390;10.856;2023-02-01T10:16:12;96526.97;;;23.51
50206;BMP280;36098;48.390;10.856;2023-02-01T10:26:12;96519.91;;;23.77
50206;BMP280;36098;48.390;10.856;2023-02-01T10:28:42;96524.09;;;23.63
50206;BMP280;36098;48.390;10.856;2023-02-01T10:31:08;96509.06;;;23.73
50206;BMP280;36098;48.390;10.856;2023-02-01T10:33:36;96508.59;;;23.86
50206;BMP280;36098;48.390;10.856;2023-02-01T10:36:08;96499.06;;;23.95
50206;BMP280;36098;48.390;10.856;2023-02-01T10:38:35;96502.78;;;23.84
50206;BMP280;36098;48.390;10.856;2023-02-01T10:41:04;96494.88;;;23.84
50206;BMP280;36098;48.390;10.856;2023-02-01T10:43:32;96493.25;;;23.63
50206;BMP280;36098;48.390;10.856;2023-02-01T10:45:58;96492.19;;;23.64
50206;BMP280;36098;48.390;10.856;2023-02-01T10:48:24;96498.72;;;23.17
50206;BMP280;36098;48.390;10.856;2023-02-01T10:50:51;96500.19;;;22.93
50206;BMP280;36098;48.390;10.856;2023-02-01T10:56:06;96498.31;;;22.89
50206;BMP280;36098;48.390;10.856;2023-02-01T10:58:32;96495.44;;;22.90
50206;BMP280;36098;48.390;10.856;2023-02-01T11:01:01;96502.81;;;22.88
50206;BMP280;36098;48.390;10.856;2023-02-01T11:03:40;96496.22;;;22.96
50206;BMP280;36098;48.390;10.856;2023-02-01T11:06:09;96494.66;;;22.95
50206;BMP280;36098;48.390;10.856;2023-02-01T11:08:41;96503.66;;;23.04
50206;BMP280;36098;48.390;10.856;2023-02-01T11:11:07;96499.69;;;23.01
50206;BMP280;36098;48.390;10.856;2023-02-01T11:13:36;96489.22;;;23.11
50206;BMP280;36098;48.390;10.856;2023-02-01T11:16:03;96503.69;;;23.14
50206;BMP280;36098;48.390;10.856;2023-02-01T11:18:29;96506.38;;;23.24
50206;BMP280;36098;48.390;10.856;2023-02-01T11:20:54;96500.38;;;23.53
50206;BMP280;36098;48.390;10.856;2023-02-01T11:23:27;96511.44;;;23.60
50206;BMP280;36098;48.390;10.856;2023-02-01T11:25:54;96500.63;;;23.61
50206;BMP280;36098;48.390;10.856;2023-02-01T11:28:20;96510.16;;;23.92
50206;BMP280;36098;48.390;10.856;2023-02-01T11:30:46;96514.41;;;23.83
50206;BMP280;36098;48.390;10.856;2023-02-01T11:33:14;96516.97;;;23.68
50206;BMP280;36098;48.390;10.856;2023-02-01T11:35:40;96518.00;;;23.42
50206;BMP280;36098;48.390;10.856;2023-02-01T11:40:44;96508.03;;;23.79
50206;BMP280;36098;48.390;10.856;2023-02-01T11:43:17;96517.81;;;23.84
50206;BMP280;36098;48.390;10.856;2023-02-01T11:45:58;96509.59;;;23.70
50206;BMP280;36098;48.390;10.856;2023-02-01T11:48:24;96508.03;;;23.69
50206;BMP280;36098;48.390;10.856;2023-02-01T11:58:31;96511.50;;;22.89
50206;BMP280;36098;48.390;10.856;2023-02-01T12:01:03;96495.94;;;22.87
50206;BMP280;36098;48.390;10.856;2023-02-01T12:03:42;96495.16;;;22.92
50206;BMP280;36098;48.390;10.856;2023-02-01T12:09:03;96487.78;;;22.94
50206;BMP280;36098;48.390;10.856;2023-02-01T12:16:35;96487.03;;;22.93
50206;BMP280;36098;48.390;10.856;2023-02-01T12:19:21;96485.44;;;22.92
50206;BMP280;36098;48.390;10.856;2023-02-01T12:21:57;96497.03;;;22.91
50206;BMP280;36098;48.390;10.856;2023-02-01T12:24:37;96490.72;;;22.97
50206;BMP280;36098;48.390;10.856;2023-02-01T12:34:29;96456.38;;;23.83
50206;BMP280;36098;48.390;10.856;2023-02-01T12:37:06;96463.47;;;23.83
50206;BMP280;36098;48.390;10.856;2023-02-01T12:39:35;96463.16;;;23.29
50206;BMP280;36098;48.390;10.856;2023-02-01T12:42:07;96450.41;;;22.97
50206;BMP280;36098;48.390;10.856;2023-02-01T12:44:37;96439.38;;;23.10
50206;BMP280;36098;48.390;10.856;2023-02-01T12:47:09;96432.53;;;22.99
50206;BMP280;36098;48.390;10.856;2023-02-01T12:49:45;96446.50;;;23.09
50206;BMP280;36098;48.390;10.856;2023-02-01T12:52:14;96437.63;;;23.55
50206;BMP280;36098;48.390;10.856;2023-02-01T12:54:42;96432.91;;;23.87
50206;BMP280;36098;48.390;10.856;2023-02-01T12:57:15;96438.41;;;23.95
50206;BMP280;36098;48.390;10.856;2023-02-01T12:59:47;96435.75;;;23.75
50206;BMP280;36098;48.390;10.856;2023-02-01T13:04:55;96440.00;;;23.71
50206;BMP280;36098;48.390;10.856;2023-02-01T13:15:13;96428.38;;;23.32
50206;BMP280;36098;48.390;10.856;2023-02-01T13:17:40;96425.22;;;23.21
50206;BMP280;36098;48.390;10.856;2023-02-01T13:20:13;96424.88;;;22.97
50206;BMP280;36098;48.390;10.856;2023-02-01T13:22:42;96431.44;;;22.85
50206;BMP280;36098;48.390;10.856;2023-02-01T13:27:38;96433.53;;;22.88
50206;BMP280;36098;48.390;10.856;2023-02-01T13:30:06;96431.72;;;22.88
50206;BMP280;36098;48.390;10.856;2023-02-01T13:42:48;96426.16;;;22.90
50206;BMP280;36098;48.390;10.856;2023-02-01T13:45:15;96436.69;;;22.90
50206;BMP280;36098;48.390;10.856;2023-02-01T13:47:43;96454.38;;;22.99
50206;BMP280;36098;48.390;10.856;2023-02-01T13:53:21;96446.19;;;22.91
50206;BMP280;36098;48.390;10.856;2023-02-01T13:55:43;96450.00;;;23.20
50206;BMP280;36098;48.390;10.856;2023-02-01T14:00:38;96455.25;;;23.20
50206;BMP280;36098;48.390;10.856;2023-02-01T14:15:38;96441.03;;;23.26
50206;BMP280;36098;48.390;10.856;2023-02-01T14:18:24;96452.09;;;23.27
50206;BMP280;36098;48.390;10.856;2023-02-01T14:20:48;96440.47;;;23.14
50206;BMP280;36098;48.390;10.856;2023-02-01T14:23:16;96437.88;;;23.43
50206;BMP280;36098;48.390;10.856;2023-02-01T14:25:43;96443.44;;;23.67
50206;BMP280;36098;48.390;10.856;2023-02-01T14:28:28;96450.53;;;23.71
50206;BMP280;36098;48.390;10.856;2023-02-01T14:30:54;96437.88;;;23.53
50206;BMP280;36098;48.390;10.856;2023-02-01T14:33:22;96440.78;;;23.32
50206;BMP280;36098;48.390;10.856;2023-02-01T14:36:02;96436.28;;;23.27
50206;BMP280;36098;48.390;10.856;2023-02-01T14:38:27;96432.03;;;23.17
50206;BMP280;36098;48.390;10.856;2023-02-01T14:40:56;96430.22;;;23.22
50206;BMP280;36098;48.390;10.856;2023-02-01T14:46:18;96434.44;;;23.43
50206;BMP280;36098;48.390;10.856;2023-02-01T14:48:44;96432.06;;;23.56
50206;BMP280;36098;48.390;10.856;2023-02-01T14:51:11;96426.28;;;23.34
50206;BMP280;36098;48.390;10.856;2023-02-01T14:53:38;96427.78;;;23.11
50206;BMP280;36098;48.390;10.856;2023-02-01T14:58:34;96439.34;;;22.95
50206;BMP280;36098;48.390;10.856;2023-02-01T15:01:02;96433.06;;;23.01
50206;BMP280;36098;48.390;10.856;2023-02-01T15:06:01;96426.75;;;23.07
50206;BMP280;36098;48.390;10.856;2023-02-01T15:08:36;96429.66;;;23.10
50206;BMP280;36098;48.390;10.856;2023-02-01T15:11:05;96424.09;;;23.07
50206;BMP280;36098;48.390;10.856;2023-02-01T15:13:31;96423.28;;;23.06
50206;BMP280;36098;48.390;10.856;2023-02-01T15:16:15;96435.16;;;23.04
50206;BMP280;36098;48.390;10.856;2023-02-01T15:18:41;96430.94;;;23.03
50206;BMP280;36098;48.390;10.856;2023-02-01T15:21:06;96436.22;;;23.08
50206;BMP280;36098;48.390;10.856;2023-02-01T15:23:38;96433.09;;;23.16
50206;BMP280;36098;48.390;10.856;2023-02-01T15:26:03;96426.78;;;23.12
50206;BMP280;36098;48.390;10.856;2023-02-01T15:28:28;96431.72;;;22.98
50206;BMP280;36098;48.390;10.856;2023-02-01T15:31:04;96441.97;;;22.85
50206;BMP280;36098;48.390;10.856;2023-02-01T15:33:29;96426.16;;;22.85
50206;BMP280;36098;48.390;10.856;2023-02-01T15:36:07;96436.69;;;22.85
50206;BMP280;36098;48.390;10.856;2023-02-01T15:38:37;96426.75;;;23.02
50206;BMP280;36098;48.390;10.856;2023-02-01T15:41:07;96418.91;;;23.22
50206;BMP280;36098;48.390;10.856;2023-02-01T15:43:44;96426.28;;;23.29
50206;BMP280;36098;48.390;10.856;2023-02-01T15:46:14;96425.25;;;23.45
50206;BMP280;36098;48.390;10.856;2023-02-01T15:48:44;96433.66;;;23.47
50206;BMP280;36098;48.390;10.856;2023-02-01T15:51:16;96431.03;;;23.42
50206;BMP280;36098;48.390;10.856;2023-02-01T15:54:25;96430.78;;;23.54
50206;BMP280;36098;48.390;10.856;2023-02-01T15:56:36;96425.78;;;23.77
50206;BMP280;36098;48.390;10.856;2023-02-01T15:59:02;96441.06;;;23.45